createdAt,value
2022-10-12T00:00:34.016Z,80.68
2022-10-12T00:03:00.651Z,81.32
2022-10-12T00:05:27.196Z,81.52
2022-10-12T00:07:53.843Z,81.32
2022-10-12T00:10:20.360Z,81.95
2022-10-12T00:12:46.906Z,81.75
2022-10-12T00:15:13.573Z,81.58
2022-10-12T00:17:40.429Z,81.37
2022-10-12T00:20:07.725Z,80.95
2022-10-12T00:22:34.369Z,81.42
2022-10-12T00:25:01.251Z,82.21
2022-10-12T00:27:27.894Z,82.06
2022-10-12T00:29:54.395Z,81.99
2022-10-12T00:32:21.174Z,84.16
2022-10-12T00:34:47.750Z,84.89
2022-10-12T00:37:14.440Z,83.98
2022-10-12T00:39:41.319Z,83.76
2022-10-12T00:42:12.158Z,83.58
2022-10-12T00:44:47.333Z,84.01
2022-10-12T00:47:38.151Z,84.37
2022-10-12T00:50:29.463Z,84.45
2022-10-12T00:53:03.813Z,83.99
2022-10-12T00:55:37.147Z,84.16
2022-10-12T00:58:06.522Z,83.97
2022-10-12T01:00:33.233Z,84.17
2022-10-12T01:03:00.029Z,84.56
2022-10-12T01:05:27.161Z,84.68
2022-10-12T01:07:53.755Z,85.49
2022-10-12T01:10:20.386Z,85.74
2022-10-12T01:12:49.641Z,85.18
2022-10-12T01:15:16.417Z,85.58
2022-10-12T01:17:48.977Z,85.32
2022-10-12T01:20:41.204Z,84.83
2022-10-12T01:23:16.846Z,84.18
2022-10-12T01:26:19.758Z,83.81
2022-10-12T01:29:25.475Z,83.95
2022-10-12T01:32:11.900Z,84.02
2022-10-12T01:34:52.984Z,84.04
2022-10-12T01:37:41.119Z,83.96
2022-10-12T01:40:12.354Z,84.02
2022-10-12T01:42:41.990Z,83.92
2022-10-12T01:45:12.516Z,84.79
2022-10-12T01:47:41.337Z,85.05
2022-10-12T01:50:11.196Z,84.93
2022-10-12T01:53:18.514Z,85.05
2022-10-12T01:56:21.430Z,84.33
2022-10-12T01:59:01.834Z,84.32
2022-10-12T02:01:56.742Z,84.84
2022-10-12T02:05:16.072Z,84.91
2022-10-12T02:07:50.019Z,85.10
2022-10-12T02:10:24.467Z,84.62
2022-10-12T02:12:54.889Z,84.24
2022-10-12T02:15:24.378Z,83.75
2022-10-12T02:17:53.153Z,83.74
2022-10-12T02:20:23.933Z,83.71
2022-10-12T02:22:51.964Z,83.97
2022-10-12T02:25:24.922Z,84.08
2022-10-12T02:28:12.819Z,84.81
2022-10-12T02:30:49.475Z,85.13
2022-10-12T02:33:26.584Z,85.42
2022-10-12T02:36:00.424Z,85.37
2022-10-12T02:38:43.456Z,84.89
2022-10-12T02:41:17.740Z,84.52
2022-10-12T02:43:50.745Z,84.28
2022-10-12T02:46:19.647Z,84.63
2022-10-12T02:48:47.950Z,84.47
2022-10-12T02:51:15.697Z,84.40
2022-10-12T02:53:45.035Z,84.32
2022-10-12T02:56:14.888Z,85.28
2022-10-12T02:58:44.019Z,85.26
2022-10-12T03:01:10.797Z,85.32
2022-10-12T03:03:37.410Z,85.32
2022-10-12T03:06:04.094Z,85.45
2022-10-12T03:08:30.708Z,85.80
2022-10-12T03:11:08.673Z,86.34
2022-10-12T03:13:35.241Z,86.95
2022-10-12T03:16:06.700Z,86.91
2022-10-12T03:18:34.331Z,86.88
2022-10-12T03:21:01.070Z,86.52
2022-10-12T03:23:27.980Z,86.48
2022-10-12T03:25:54.634Z,86.35
2022-10-12T03:28:21.299Z,86.24
2022-10-12T03:30:47.931Z,88.11
2022-10-12T03:33:14.508Z,88.32
2022-10-12T03:35:45.268Z,88.45
2022-10-12T03:38:12.797Z,88.49
2022-10-12T03:40:39.495Z,88.71
2022-10-12T03:43:06.620Z,89.36
2022-10-12T03:45:33.279Z,89.37
2022-10-12T03:48:04.674Z,88.79
2022-10-12T03:50:34.726Z,88.52
2022-10-12T03:53:02.939Z,88.49
2022-10-12T03:55:29.609Z,88.37
2022-10-12T03:57:56.253Z,89.07
2022-10-12T04:00:23.290Z,89.23
2022-10-12T04:02:49.939Z,90.16
2022-10-12T04:05:17.299Z,89.67
2022-10-12T04:07:43.897Z,90.06
2022-10-12T04:10:10.434Z,89.92
2022-10-12T04:12:37.007Z,89.95
2022-10-12T04:15:06.966Z,90.13
2022-10-12T04:17:33.561Z,90.64
2022-10-12T04:20:00.242Z,90.51
2022-10-12T04:22:26.961Z,90.92
2022-10-12T04:24:53.549Z,90.67
2022-10-12T04:27:20.198Z,90.85
2022-10-12T04:29:46.799Z,91.00
2022-10-12T04:32:13.326Z,90.81
2022-10-12T04:34:40.023Z,89.94
2022-10-12T04:37:06.740Z,90.46
2022-10-12T04:39:33.238Z,89.74
2022-10-12T04:42:00.156Z,89.76
2022-10-12T04:44:31.867Z,89.31
2022-10-12T04:46:59.250Z,89.44
2022-10-12T04:49:25.795Z,89.90
2022-10-12T04:51:52.393Z,89.82
2022-10-12T04:54:18.973Z,89.30
2022-10-12T04:56:47.638Z,89.16
2022-10-12T04:59:14.708Z,88.96
2022-10-12T05:01:41.353Z,88.54
2022-10-12T05:04:08.020Z,88.45
2022-10-12T05:06:34.676Z,87.96
2022-10-12T05:09:01.435Z,87.11
2022-10-12T05:11:27.993Z,87.22
2022-10-12T05:13:54.535Z,87.08
2022-10-12T05:16:21.151Z,86.79
2022-10-12T05:18:47.888Z,86.28
2022-10-12T05:21:14.576Z,86.42
2022-10-12T05:23:41.152Z,86.03
2022-10-12T05:26:07.723Z,86.12
2022-10-12T05:28:39.830Z,86.15
2022-10-12T05:31:07.586Z,86.06
2022-10-12T05:33:34.135Z,86.71
2022-10-12T05:36:00.744Z,87.27
2022-10-12T05:38:27.261Z,87.13
2022-10-12T05:40:59.256Z,86.44
2022-10-12T05:43:27.309Z,85.70
2022-10-12T05:45:53.933Z,84.96
2022-10-12T05:48:20.566Z,84.44
2022-10-12T05:50:47.133Z,84.20
2022-10-12T05:53:13.778Z,83.46
2022-10-12T05:55:40.365Z,82.33
2022-10-12T05:58:06.970Z,81.42
2022-10-12T06:00:33.604Z,80.75
2022-10-12T06:03:00.253Z,79.97
2022-10-12T06:05:26.781Z,79.59
2022-10-12T06:07:53.328Z,79.70
2022-10-12T06:10:19.967Z,79.15
2022-10-12T06:12:46.493Z,79.12
2022-10-12T06:15:13.076Z,78.49
2022-10-12T06:17:39.750Z,78.01
2022-10-12T06:20:06.874Z,78.18
2022-10-12T06:22:33.552Z,78.03
2022-10-12T06:25:00.030Z,77.39
2022-10-12T06:27:26.699Z,77.02
2022-10-12T06:29:53.303Z,77.15
2022-10-12T06:32:20.105Z,76.87
2022-10-12T06:34:46.913Z,77.09
2022-10-12T06:37:37.134Z,77.36
2022-10-12T06:40:00.219Z,76.86
2022-10-12T06:42:26.782Z,76.67
2022-10-12T06:44:53.418Z,76.55
2022-10-12T06:47:20.034Z,76.60
2022-10-12T06:49:46.635Z,76.43
2022-10-12T06:52:13.205Z,76.19
2022-10-12T06:54:41.220Z,75.96
2022-10-12T06:57:07.742Z,75.76
2022-10-12T06:59:34.399Z,75.94
2022-10-12T07:02:00.979Z,75.87
2022-10-12T07:04:27.569Z,75.45
2022-10-12T07:06:54.079Z,75.84
2022-10-12T07:09:20.653Z,75.61
2022-10-12T07:11:47.493Z,75.77
2022-10-12T07:14:14.069Z,75.56
2022-10-12T07:16:40.684Z,75.41
2022-10-12T07:19:10.359Z,75.34
2022-10-12T07:21:36.994Z,74.16
2022-10-12T07:24:03.903Z,74.26
2022-10-12T07:26:31.582Z,74.01
2022-10-12T07:28:58.546Z,74.32
2022-10-12T07:31:25.169Z,74.55
2022-10-12T07:33:51.805Z,74.21
2022-10-12T07:36:21.654Z,74.24
2022-10-12T07:38:49.297Z,74.21
2022-10-12T07:41:16.336Z,74.85
2022-10-12T07:43:43.480Z,74.25
2022-10-12T07:46:10.930Z,73.97
2022-10-12T07:48:37.928Z,73.76
2022-10-12T07:51:10.254Z,74.02
2022-10-12T07:53:38.408Z,73.99
2022-10-12T07:56:07.472Z,73.88
2022-10-12T07:58:34.089Z,74.14
2022-10-12T08:01:08.425Z,74.11
2022-10-12T08:03:35.501Z,73.94
2022-10-12T08:06:18.128Z,73.77
2022-10-12T08:08:45.270Z,73.65
2022-10-12T08:11:12.371Z,73.79
2022-10-12T08:13:39.268Z,73.69
2022-10-12T08:16:10.464Z,73.78
2022-10-12T08:18:37.029Z,73.65
2022-10-12T08:21:05.199Z,73.69
2022-10-12T08:23:32.175Z,74.23
2022-10-12T08:25:58.781Z,73.86
2022-10-12T08:28:25.551Z,73.82
2022-10-12T08:30:52.672Z,73.54
2022-10-12T08:33:19.804Z,72.77
2022-10-12T08:35:47.801Z,72.60
2022-10-12T08:38:15.187Z,72.64
2022-10-12T08:40:52.466Z,73.08
2022-10-12T08:43:32.098Z,73.08
2022-10-12T08:46:00.992Z,73.51
2022-10-12T08:48:34.540Z,73.18
2022-10-12T08:51:10.637Z,73.71
2022-10-12T08:54:05.313Z,73.81
2022-10-12T08:56:34.719Z,72.78
2022-10-12T08:59:02.565Z,72.15
2022-10-12T09:01:38.704Z,72.54
2022-10-12T09:04:17.350Z,71.94
2022-10-12T09:07:01.970Z,71.21
2022-10-12T09:09:44.231Z,71.57
2022-10-12T09:12:29.298Z,72.15
2022-10-12T09:15:02.761Z,71.08
2022-10-12T09:17:44.110Z,70.67
2022-10-12T09:20:27.791Z,71.61
2022-10-12T09:23:03.126Z,71.79
2022-10-12T09:25:30.058Z,72.56
2022-10-12T09:28:17.362Z,71.84
2022-10-12T09:31:06.403Z,71.75
2022-10-12T09:33:46.080Z,71.30
2022-10-12T09:36:19.473Z,71.50
2022-10-12T09:38:47.224Z,70.89
2022-10-12T09:41:22.689Z,70.71
2022-10-12T09:43:55.621Z,70.93
2022-10-12T09:46:31.630Z,71.15
2022-10-12T09:49:00.307Z,73.18
2022-10-12T09:51:29.253Z,73.03
2022-10-12T09:54:02.568Z,71.91
2022-10-12T09:56:38.502Z,71.23
2022-10-12T09:59:26.181Z,70.48
2022-10-12T10:02:13.322Z,70.43
2022-10-12T10:04:42.104Z,70.12
2022-10-12T10:07:18.997Z,69.38
2022-10-12T10:09:47.095Z,69.36
2022-10-12T10:12:26.164Z,69.98
2022-10-12T10:14:56.805Z,70.57
2022-10-12T10:17:27.191Z,69.33
2022-10-12T10:19:56.034Z,68.52
2022-10-12T10:22:23.811Z,70.01
2022-10-12T10:25:00.207Z,70.71
2022-10-12T10:27:33.922Z,70.61
2022-10-12T10:30:29.507Z,69.77
2022-10-12T10:33:15.753Z,69.80
2022-10-12T10:36:04.241Z,69.38
2022-10-12T10:38:52.474Z,69.00
2022-10-12T10:41:19.927Z,69.07
2022-10-12T10:43:48.967Z,69.77
2022-10-12T10:46:23.077Z,67.81
2022-10-12T10:48:56.470Z,67.17
2022-10-12T10:51:38.472Z,67.67
2022-10-12T10:54:38.422Z,66.84
2022-10-12T10:57:13.618Z,65.40
2022-10-12T10:59:48.805Z,64.37
2022-10-12T11:02:21.102Z,64.72
2022-10-12T11:04:58.541Z,64.76
2022-10-12T11:07:35.756Z,65.58
2022-10-12T11:10:10.776Z,65.74
2022-10-12T11:12:42.641Z,65.60
2022-10-12T11:15:46.916Z,65.78
2022-10-12T11:18:30.603Z,65.97
2022-10-12T11:21:38.954Z,65.95
2022-10-12T11:24:13.949Z,65.78
2022-10-12T11:26:51.104Z,68.16
2022-10-12T11:29:18.261Z,66.76
2022-10-12T11:32:03.067Z,66.11
2022-10-12T11:34:35.172Z,64.95
2022-10-12T11:37:19.902Z,63.92
2022-10-12T11:39:51.293Z,62.30
2022-10-12T11:42:28.694Z,64.16
2022-10-12T11:44:55.654Z,62.45
2022-10-12T11:47:47.224Z,63.21
2022-10-12T11:50:23.721Z,63.22
2022-10-12T11:52:52.987Z,62.24
2022-10-12T11:55:44.457Z,62.55
2022-10-12T11:58:36.274Z,62.13
2022-10-12T12:01:32.023Z,60.76
2022-10-12T12:04:39.914Z,60.26
2022-10-12T12:07:36.709Z,62.05
2022-10-12T12:10:28.354Z,60.45
2022-10-12T12:13:11.740Z,59.90
2022-10-12T12:15:43.925Z,60.65
2022-10-12T12:18:15.543Z,60.94
2022-10-12T12:20:42.498Z,60.50
2022-10-12T12:23:18.277Z,60.33
2022-10-12T12:25:45.013Z,61.02
2022-10-12T12:28:23.763Z,61.42
2022-10-12T12:30:59.894Z,62.60
2022-10-12T12:33:35.172Z,62.64
2022-10-12T12:36:05.758Z,62.51
2022-10-12T12:38:35.579Z,64.35
2022-10-12T12:41:14.098Z,63.71
2022-10-12T12:44:04.265Z,64.18
2022-10-12T12:46:52.459Z,63.10
2022-10-12T12:49:27.053Z,63.49
2022-10-12T12:51:55.094Z,64.50
2022-10-12T12:54:22.512Z,64.20
2022-10-12T12:57:08.088Z,63.58
2022-10-12T13:00:09.121Z,62.67
2022-10-12T13:03:02.827Z,62.51
2022-10-12T13:05:50.721Z,62.91
2022-10-12T13:08:27.485Z,63.64
2022-10-12T13:11:28.157Z,62.96
2022-10-12T13:14:32.958Z,63.43
2022-10-12T13:17:33.492Z,64.43
2022-10-12T13:20:11.415Z,63.45
2022-10-12T13:22:39.921Z,62.02
2022-10-12T13:25:12.093Z,62.23
2022-10-12T13:27:53.755Z,61.03
2022-10-12T13:30:41.763Z,58.69
2022-10-12T13:33:14.203Z,54.81
2022-10-12T13:35:53.093Z,54.24
2022-10-12T13:38:28.362Z,54.42
2022-10-12T13:41:08.671Z,53.92
2022-10-12T13:43:53.570Z,52.37
2022-10-12T13:46:43.549Z,53.75
2022-10-12T13:49:19.445Z,54.18
2022-10-12T13:51:51.182Z,54.07
2022-10-12T13:54:27.193Z,56.27
2022-10-12T13:57:01.230Z,55.78
2022-10-12T13:59:32.559Z,57.78
2022-10-12T14:02:01.737Z,58.38
2022-10-12T14:04:30.807Z,58.21
2022-10-12T14:07:05.194Z,59.18
2022-10-12T14:09:46.482Z,60.14
2022-10-12T14:12:15.469Z,59.79
2022-10-12T14:14:45.312Z,61.00
2022-10-12T14:17:16.962Z,60.93
2022-10-12T14:19:53.080Z,61.94
2022-10-12T14:22:27.788Z,62.60
2022-10-12T14:25:16.584Z,64.03
2022-10-12T14:27:43.487Z,63.83
2022-10-12T14:30:18.709Z,63.34
2022-10-12T14:32:46.616Z,62.60
2022-10-12T14:35:21.047Z,64.88
2022-10-12T14:37:49.045Z,64.76
2022-10-12T14:40:29.277Z,67.20
2022-10-12T14:43:09.417Z,67.31
2022-10-12T14:45:36.585Z,67.31
2022-10-12T14:48:04.950Z,68.05
2022-10-12T14:50:32.911Z,66.89
2022-10-12T14:53:03.795Z,66.38
2022-10-12T14:55:33.093Z,65.63
2022-10-12T14:58:00.227Z,67.00
2022-10-12T15:00:30.442Z,67.02
2022-10-12T15:02:57.785Z,67.01
2022-10-12T15:05:26.154Z,68.18
2022-10-12T15:07:52.889Z,68.79
2022-10-12T15:10:22.593Z,70.03
2022-10-12T15:12:49.994Z,70.73
2022-10-12T15:15:40.301Z,72.42
2022-10-12T15:18:07.348Z,71.12
2022-10-12T15:20:34.807Z,71.79
2022-10-12T15:23:02.943Z,71.86
2022-10-12T15:25:35.100Z,71.04
2022-10-12T15:28:05.173Z,70.96
2022-10-12T15:30:32.839Z,70.09
2022-10-12T15:33:01.692Z,68.61
2022-10-12T15:35:31.833Z,68.63
2022-10-12T15:37:58.619Z,69.68
2022-10-12T15:40:28.418Z,70.18
2022-10-12T15:42:55.010Z,69.43
2022-10-12T15:45:32.237Z,70.60
2022-10-12T15:47:59.337Z,70.44
2022-10-12T15:50:29.303Z,69.81
2022-10-12T15:52:56.680Z,68.84
2022-10-12T15:55:25.769Z,68.15
2022-10-12T15:57:53.067Z,66.92
2022-10-12T16:00:23.123Z,67.08
2022-10-12T16:02:49.744Z,67.13
2022-10-12T16:05:21.067Z,67.89
2022-10-12T16:07:48.448Z,67.35
2022-10-12T16:10:16.754Z,67.98
2022-10-12T16:12:46.207Z,67.60
2022-10-12T16:15:40.373Z,67.65
2022-10-12T16:18:07.392Z,68.39
2022-10-12T16:20:37.162Z,68.23
2022-10-12T16:23:06.279Z,68.06
2022-10-12T16:25:33.027Z,68.21
2022-10-12T16:27:59.633Z,68.33
2022-10-12T16:30:26.681Z,69.61
2022-10-12T16:32:53.360Z,69.37
2022-10-12T16:35:20.315Z,69.51
2022-10-12T16:37:47.018Z,68.98
2022-10-12T16:40:13.889Z,68.88
2022-10-12T16:42:40.493Z,69.22
2022-10-12T16:45:08.193Z,69.42
2022-10-12T16:47:38.861Z,69.26
2022-10-12T16:50:09.500Z,68.73
2022-10-12T16:52:36.133Z,68.50
2022-10-12T16:55:03.087Z,68.13
2022-10-12T16:57:30.018Z,67.95
2022-10-12T16:59:56.850Z,68.57
2022-10-12T17:02:23.398Z,68.05
2022-10-12T17:04:50.006Z,68.09
2022-10-12T17:07:16.917Z,68.13
2022-10-12T17:09:43.686Z,69.02
2022-10-12T17:12:10.334Z,68.94
2022-10-12T17:14:37.018Z,69.33
2022-10-12T17:17:04.817Z,69.09
2022-10-12T17:19:32.987Z,69.21
2022-10-12T17:22:01.531Z,69.43
2022-10-12T17:24:30.202Z,68.84
2022-10-12T17:26:57.896Z,68.96
2022-10-12T17:29:26.829Z,69.39
2022-10-12T17:31:55.601Z,69.42
2022-10-12T17:34:26.642Z,69.60
2022-10-12T17:36:54.995Z,70.13
2022-10-12T17:39:22.089Z,69.85
2022-10-12T17:41:49.116Z,70.54
2022-10-12T17:44:16.651Z,70.67
2022-10-12T17:46:45.010Z,70.64
2022-10-12T17:49:14.209Z,70.44
2022-10-12T17:51:41.034Z,70.77
2022-10-12T17:54:10.121Z,70.67
2022-10-12T17:56:36.853Z,71.00
2022-10-12T17:59:04.830Z,71.09
2022-10-12T18:01:32.703Z,71.10
2022-10-12T18:04:01.457Z,71.24
2022-10-12T18:06:29.696Z,71.59
2022-10-12T18:08:57.209Z,71.38
2022-10-12T18:11:24.379Z,70.87
2022-10-12T18:13:53.848Z,70.88
2022-10-12T18:16:23.965Z,71.34
2022-10-12T18:18:51.753Z,71.44
2022-10-12T18:21:22.363Z,71.66
2022-10-12T18:23:49.780Z,71.53
2022-10-12T18:26:19.848Z,71.66
2022-10-12T18:28:47.658Z,72.25
2022-10-12T18:31:19.349Z,72.25
2022-10-12T18:33:45.945Z,72.08
2022-10-12T18:36:13.339Z,72.31
2022-10-12T18:38:39.936Z,72.70
2022-10-12T18:41:09.389Z,73.05
2022-10-12T18:43:37.145Z,73.45
2022-10-12T18:46:08.103Z,73.67
2022-10-12T18:48:35.253Z,73.87
2022-10-12T18:51:19.295Z,73.56
2022-10-12T18:53:46.642Z,74.29
2022-10-12T18:56:13.820Z,74.19
2022-10-12T18:58:40.456Z,74.69
2022-10-12T19:01:19.495Z,74.87
2022-10-12T19:03:48.247Z,74.83
2022-10-12T19:06:19.560Z,75.04
2022-10-12T19:08:47.917Z,75.03
2022-10-12T19:11:17.520Z,74.93
2022-10-12T19:13:50.843Z,75.21
2022-10-12T19:16:17.912Z,75.16
2022-10-12T19:18:44.475Z,75.19
2022-10-12T19:21:17.063Z,75.22
2022-10-12T19:23:45.073Z,75.10
2022-10-12T19:26:14.983Z,75.35
2022-10-12T19:28:41.745Z,75.44
2022-10-12T19:31:13.531Z,75.22
2022-10-12T19:33:40.314Z,75.55
2022-10-12T19:36:08.934Z,75.71
2022-10-12T19:38:36.145Z,75.56
2022-10-12T19:41:03.121Z,75.45
2022-10-12T19:43:29.851Z,75.79
2022-10-12T19:45:56.440Z,75.69
2022-10-12T19:48:23.142Z,75.60
2022-10-12T19:50:58.056Z,75.55
2022-10-12T19:53:24.936Z,76.03
2022-10-12T19:55:51.520Z,75.95
2022-10-12T19:58:18.150Z,75.91
2022-10-12T20:00:44.712Z,75.92
2022-10-12T20:03:11.306Z,75.99
2022-10-12T20:05:37.901Z,76.09
2022-10-12T20:08:04.446Z,76.10
2022-10-12T20:10:31.075Z,75.97
2022-10-12T20:12:57.674Z,76.14
2022-10-12T20:15:24.270Z,76.12
2022-10-12T20:17:50.809Z,75.86
2022-10-12T20:20:17.524Z,76.04
2022-10-12T20:22:44.055Z,76.07
2022-10-12T20:25:10.591Z,76.08
2022-10-12T20:27:37.163Z,75.92
2022-10-12T20:30:05.294Z,76.07
2022-10-12T20:32:34.197Z,76.10
2022-10-12T20:35:01.689Z,76.57
2022-10-12T20:37:28.723Z,76.85
2022-10-12T20:39:55.293Z,76.48
2022-10-12T20:42:22.410Z,76.37
2022-10-12T20:44:49.440Z,76.35
2022-10-12T20:47:17.482Z,76.12
2022-10-12T20:49:44.588Z,76.05
2022-10-12T20:52:11.442Z,76.11
2022-10-12T20:54:38.268Z,76.00
2022-10-12T20:57:05.072Z,76.02
2022-10-12T20:59:34.378Z,76.04
2022-10-12T21:02:00.946Z,76.11
2022-10-12T21:04:28.305Z,76.33
2022-10-12T21:06:54.879Z,76.48
2022-10-12T21:09:21.753Z,76.47
2022-10-12T21:11:48.453Z,76.45
2022-10-12T21:14:28.540Z,76.51
2022-10-12T21:16:55.125Z,76.47
2022-10-12T21:19:21.722Z,76.46
2022-10-12T21:21:48.397Z,76.17
2022-10-12T21:24:15.509Z,76.12
2022-10-12T21:26:42.134Z,76.26
2022-10-12T21:29:09.513Z,76.44
2022-10-12T21:31:36.089Z,76.52
2022-10-12T21:34:06.781Z,76.18
2022-10-12T21:36:36.200Z,76.41
2022-10-12T21:39:04.333Z,76.41
2022-10-12T21:41:30.917Z,76.40
2022-10-12T21:43:57.523Z,76.37
2022-10-12T21:46:26.967Z,76.30
2022-10-12T21:48:53.785Z,75.92
2022-10-12T21:51:21.874Z,75.75
2022-10-12T21:53:50.416Z,75.39
2022-10-12T21:56:19.829Z,75.25
2022-10-12T21:58:47.469Z,75.09
2022-10-12T22:01:20.446Z,75.08
2022-10-12T22:03:50.363Z,75.00
2022-10-12T22:06:19.493Z,74.69
2022-10-12T22:08:51.939Z,74.78
2022-10-12T22:11:18.875Z,74.60
2022-10-12T22:13:45.432Z,74.68
2022-10-12T22:16:14.876Z,74.72
2022-10-12T22:18:42.597Z,74.42
2022-10-12T22:21:19.651Z,74.70
2022-10-12T22:23:46.264Z,74.85
2022-10-12T22:26:18.997Z,74.68
2022-10-12T22:28:53.246Z,74.69
2022-10-12T22:31:20.950Z,74.44
2022-10-12T22:33:47.512Z,74.32
2022-10-12T22:36:15.693Z,74.12
2022-10-12T22:38:43.886Z,74.28
2022-10-12T22:41:13.249Z,74.23
2022-10-12T22:43:45.912Z,74.03
2022-10-12T22:46:12.654Z,74.07
2022-10-12T22:48:39.307Z,74.18
2022-10-12T22:51:08.710Z,73.97
2022-10-12T22:53:36.000Z,74.20
2022-10-12T22:56:05.983Z,74.13
2022-10-12T22:58:33.127Z,74.12
2022-10-12T23:01:13.172Z,74.10
2022-10-12T23:03:40.644Z,73.96
2022-10-12T23:06:12.166Z,73.63
2022-10-12T23:08:38.869Z,73.77
2022-10-12T23:11:17.327Z,73.58
2022-10-12T23:13:44.836Z,73.64
2022-10-12T23:16:17.583Z,73.77
2022-10-12T23:18:45.072Z,73.59
2022-10-12T23:21:16.906Z,73.62
2022-10-12T23:23:44.897Z,73.71
2022-10-12T23:26:14.588Z,73.72
2022-10-12T23:28:41.547Z,73.33
2022-10-12T23:31:17.305Z,73.49
2022-10-12T23:33:44.505Z,73.65
2022-10-12T23:36:13.451Z,73.61
2022-10-12T23:38:41.625Z,73.69
2022-10-12T23:41:09.063Z,73.87
2022-10-12T23:43:36.041Z,73.76
2022-10-12T23:46:04.845Z,73.76
2022-10-12T23:48:32.168Z,73.76
2022-10-12T23:50:59.218Z,74.33
2022-10-12T23:53:26.375Z,74.07
2022-10-12T23:55:53.586Z,74.16
2022-10-12T23:58:20.819Z,74.45
